Flight Track Log - Related Links

Times and Time Zones

All times are in EDT time to prevent confusion due to time zone crossing. See the N552XJ flight status page for this flight to view local times or setup timezone preferences in your user account.

Time Position Orientation Groundspeed Altitude Reporting Facility
EDT Latitude Longitude Course Direction KTS MPH feet Rate Location/Type
Fri 03:28:28 PM 27.3833 -82.5500 119° Southeast 158 182 1,100  Level Tampa TRACON
Fri 03:29:17 PM 27.3667 -82.5167 119° Southeast 215 247 3,000 3,138 Climbing Tampa TRACON
Fri 03:30:17 PM 27.3000 -82.5167 180° South 247 284 6,800 3,385 Climbing Tampa TRACON
Fri 03:32:16 PM 27.3781 -82.6631 301° West 236 272 13,100 2,950 Climbing Miami Center
Fri 03:33:16 PM 27.4431 -82.7600 307° West 301 346 15,600 1,900 Climbing Miami Center
Fri 03:34:16 PM 27.5458 -82.7933 344° North 340 391 16,900 1,806 Climbing Miami Center
Fri 03:36:32 PM 27.7889 -82.7942 360° North 384 442 21,500 2,082 Climbing Jacksonville Center
Fri 03:37:32 PM 27.8892 -82.8456 336° Northwest 384 442 23,700 1,750 Climbing Jacksonville Center
Fri 03:38:32 PM 27.9997 -82.8856 342° North 391 450 25,000 655 Climbing Jacksonville Center
Fri 03:39:31 PM 28.1208 -82.9114 349° North 418 481 25,000  Level Jacksonville Center
Fri 03:40:32 PM 28.2439 -82.9444 347° North 435 501 25,000 450 Level Jacksonville Center
Fri 03:41:31 PM 28.3647 -82.9822 345° North 435 501 25,900 1,059 Climbing Jacksonville Center
Fri 03:42:31 PM 28.4817 -83.0106 348° North 435 501 27,100 1,700 Climbing Jacksonville Center
Fri 03:43:31 PM 28.6028 -83.0392 348° North 435 501 29,300 2,150 Climbing Jacksonville Center
Fri 03:44:31 PM 28.7217 -83.0700 347° North 435 501 31,400 2,083 Climbing Jacksonville Center
Fri 03:45:32 PM 28.8239 -83.1294 333° Northwest 430 495 33,500 2,100 Climbing Jacksonville Center
Fri 03:46:31 PM 28.9133 -83.2081 322° Northwest 411 473 35,600 1,950 Climbing Jacksonville Center
Fri 03:47:32 PM 29.0072 -83.2794 326° Northwest 406 467 37,400 1,785 Climbing Jacksonville Center
Fri 03:48:32 PM 29.1175 -83.3108 346° North 406 467 39,200 1,563 Climbing Jacksonville Center
Fri 03:49:31 PM 29.2322 -83.3400 347° North 406 467 40,500 950 Climbing Jacksonville Center
Fri 03:50:32 PM 29.3469 -83.3692 348° North 406 467 41,100 545 Climbing Jacksonville Center
Fri 03:51:32 PM 29.4639 -83.3936 350° North 420 483 41,600 504 Climbing Jacksonville Center
Fri 03:52:31 PM 29.5972 -83.4275 348° North 434 499 42,100 550 Climbing Jacksonville Center
Fri 03:53:32 PM 29.7244 -83.4547 349° North 445 512 42,700 595 Climbing Jacksonville Center
Fri 03:54:32 PM 29.8475 -83.4817 349° North 451 519 43,300 605 Climbing Jacksonville Center
Fri 03:55:31 PM 29.9728 -83.5111 348° North 451 519 43,900 655 Climbing Jacksonville Center
Fri 03:56:31 PM 30.0978 -83.5383 349° North 451 519 44,600 550 Climbing Jacksonville Center
Fri 03:57:31 PM 30.2189 -83.5656 349° North 446 513 45,000 198 Climbing Jacksonville Center
Fri 03:58:32 PM 30.3439 -83.5931 349° North 446 513 45,000  Level Jacksonville Center
Fri 03:59:31 PM 30.4692 -83.6228 348° North 451 519 45,000  Level Jacksonville Center
Fri 04:00:32 PM 30.5919 -83.6528 348° North 451 519 45,000  Level Jacksonville Center
Fri 04:01:32 PM 30.7192 -83.6828 349° North 451 519 45,000  Level Jacksonville Center
Fri 04:02:32 PM 30.8464 -83.7128 349° North 457 526 45,000  Level Jacksonville Center
Fri 04:03:31 PM 30.9714 -83.7431 348° North 457 526 45,000  Level Jacksonville Center
Fri 04:04:32 PM 31.0986 -83.7733 348° North 457 526 45,000  Level Jacksonville Center
Fri 04:06:17 PM 31.3103 -83.8250 348° North 482 555 45,000  Level Atlanta Center
Fri 04:07:17 PM 31.4375 -83.8564 348° North 477 549 45,000  Level Atlanta Center
Fri 04:08:17 PM 31.5650 -83.8903 347° North 470 541 45,000  Level Atlanta Center
Fri 04:09:17 PM 31.6964 -83.9217 349° North 470 541 45,000  Level Atlanta Center
Fri 04:10:17 PM 31.8406 -83.9533 349° North 475 547 45,000  Level Atlanta Center
Fri 04:11:17 PM 31.9700 -83.9825 349° North 468 539 45,000  Level Atlanta Center
Fri 04:12:17 PM 32.0953 -84.0119 349° North 463 533 45,000  Level Atlanta Center
Fri 04:13:17 PM 32.2244 -84.0436 348° North 468 539 45,000  Level Atlanta Center
Fri 04:14:17 PM 32.3539 -84.0733 349° North 468 539 45,000  Level Atlanta Center
Fri 04:15:17 PM 32.4833 -84.1053 348° North 468 539 45,000  Level Atlanta Center
Fri 04:16:17 PM 32.6108 -84.1375 348° North 468 539 45,000  Level Atlanta Center
Fri 04:17:17 PM 32.7422 -84.1697 348° North 468 539 45,000  Level Atlanta Center
Fri 04:18:17 PM 32.8717 -84.2019 348° North 473 544 45,000  Level Atlanta Center
Fri 04:19:17 PM 32.9906 -84.2319 348° North 473 544 45,000  Level Atlanta Center
Fri 04:20:17 PM 33.1219 -84.2644 348° North 474 545 45,000  Level Atlanta Center
Fri 04:21:17 PM 33.2514 -84.2972 348° North 474 545 45,000  Level Atlanta Center
Fri 04:22:17 PM 33.3847 -84.3275 349° North 480 552 45,000  Level Atlanta Center
Fri 04:23:17 PM 33.5161 -84.3628 347° North 480 552 45,000  Level Atlanta Center
Fri 04:24:17 PM 33.6581 -84.4008 347° North 485 558 45,000  Level Atlanta Center
Fri 04:25:17 PM 33.7936 -84.4339 349° North 490 564 45,000  Level Atlanta Center
Fri 04:26:17 PM 33.9292 -84.4694 348° North 490 564 45,000  Level Atlanta Center
Fri 04:27:17 PM 34.0625 -84.5053 347° North 485 558 45,000  Level Atlanta Center
Fri 04:28:17 PM 34.1961 -84.5311 351° North 514 592 45,000  Level Atlanta Center
Fri 04:29:17 PM 34.3294 -84.5669 347° North 508 585 45,000  Level Atlanta Center
Fri 04:30:17 PM 34.4672 -84.6006 349° North 502 578 45,000  Level Atlanta Center
Fri 04:31:17 PM 34.6047 -84.6344 349° North 502 578 45,000  Level Atlanta Center
Fri 04:32:17 PM 34.7361 -84.6733 346° North 496 571 45,000  Level Atlanta Center
Fri 04:33:17 PM 34.8736 -84.7072 349° North 491 565 45,000  Level Atlanta Center
Fri 04:35:17 PM 35.1486 -84.7806 348° North 496 571 45,000  Level Atlanta Center
Fri 04:36:17 PM 35.2881 -84.8147 349° North 501 577 45,000  Level Atlanta Center
Fri 04:37:17 PM 35.4256 -84.8517 348° North 506 582 45,000  Level Atlanta Center
Fri 04:38:17 PM 35.5650 -84.8889 348° North 506 582 45,000  Level Atlanta Center
Fri 04:39:17 PM 35.7006 -84.9261 347° North 506 582 45,000  Level Atlanta Center
Fri 04:40:17 PM 35.8422 -84.9583 350° North 512 589 45,000  Level Atlanta Center
Fri 04:42:43 PM 36.1850 -85.0500 348° North 503 579 45,000  Level Indianapolis Center
Fri 04:43:45 PM 36.3253 -85.0836 349° North 510 587 45,000  Level Indianapolis Center
Fri 04:44:47 PM 36.4669 -85.1133 350° North 514 592 45,000  Level Indianapolis Center
Fri 04:45:49 PM 36.6072 -85.1447 350° North 513 590 45,000  Level Indianapolis Center
Fri 04:46:50 PM 36.7486 -85.1761 350° North 515 593 45,000  Level Indianapolis Center
Fri 04:47:52 PM 36.9175 -85.2139 350° North 512 589 45,000  Level Indianapolis Center
Fri 04:48:54 PM 37.0408 -85.2406 350° North 512 589 45,000  Level Indianapolis Center
Fri 04:49:56 PM 37.2056 -85.2789 349° North 512 589 45,000  Level Indianapolis Center
Fri 04:50:58 PM 37.3472 -85.3092 350° North 514 592 45,000  Level Indianapolis Center
Fri 04:52:00 PM 37.4892 -85.3408 350° North 514 592 45,000  Level Indianapolis Center
Fri 04:53:01 PM 37.6283 -85.3731 350° North 508 585 45,000  Level Indianapolis Center
Fri 04:54:03 PM 37.7675 -85.4053 350° North 506 582 45,000 -48 Level Indianapolis Center
Fri 04:55:05 PM 37.9133 -85.4364 350° North 515 593 44,900 -532 Descending Indianapolis Center
Fri 04:56:07 PM 38.0497 -85.4672 350° North 499 574 43,900 -968 Descending Indianapolis Center
Fri 04:57:09 PM 38.1856 -85.4997 349° North 496 571 42,900 -1,463 Descending Indianapolis Center
Fri 04:58:10 PM 38.3225 -85.5319 350° North 498 573 40,900 -2,195 Descending Indianapolis Center
Fri 04:59:12 PM 38.4925 -85.5706 350° North 513 590 38,400 -2,129 Descending Indianapolis Center
Fri 05:00:14 PM 38.6339 -85.6019 350° North 514 592 36,500 -1,935 Descending Indianapolis Center
Fri 05:01:16 PM 38.7778 -85.6367 349° North 525 604 34,400 -2,000 Descending Indianapolis Center
Fri 05:02:17 PM 38.9253 -85.6700 350° North 535 616 32,400 -1,951 Descending Indianapolis Center
Fri 05:03:19 PM 39.0756 -85.7075 349° North 548 631 30,400 -1,161 Descending Indianapolis Center
Fri 05:04:21 PM 39.2175 -85.7389 350° North 524 603 30,000 -194 Descending Indianapolis Center
Fri 05:05:23 PM 39.3583 -85.7725 350° North 514 592 30,000 -195 Level Indianapolis Center
Fri 05:06:24 PM 39.5003 -85.8086 349° North 517 595 29,600 -1,122 Descending Indianapolis Center
Fri 05:07:26 PM 39.6731 -85.8500 350° North 523 602 27,700 -1,645 Descending Indianapolis Center
Fri 05:08:28 PM 39.8100 -85.8822 350° North 524 603 26,200 -1,463 Descending Indianapolis Center
Fri 05:09:29 PM 39.9492 -85.9158 350° North 511 588 24,700 -1,073 Descending Indianapolis Center
Fri 05:10:31 PM 40.0775 -85.9581 346° North 478 550 24,000 -339 Descending Indianapolis Center
Fri 05:11:33 PM 40.1844 -86.0236 335° Northwest 432 497 24,000 -138 Level Indianapolis Center
Fri 05:11:58 PM 40.2247 -86.0483 335° Northwest 421 484 23,800 -818 Descending Chicago Center
Fri 05:13:01 PM 40.3317 -86.1167 334° Northwest 427 491 22,800 -1,056 Descending Chicago Center
Fri 05:14:03 PM 40.4606 -86.1961 335° Northwest 426 490 21,600 -1,113 Descending Chicago Center
Fri 05:15:05 PM 40.5681 -86.2647 334° Northwest 429 494 20,500 -1,403 Descending Chicago Center
Fri 05:16:07 PM 40.6753 -86.3317 335° Northwest 426 490 18,700 -1,645 Descending Chicago Center
Fri 05:17:09 PM 40.7761 -86.3953 334° Northwest 406 467 17,100 -1,597 Descending Chicago Center
Fri 05:18:11 PM 40.8739 -86.4589 334° Northwest 393 452 15,400 -1,645 Descending Chicago Center
Fri 05:19:13 PM 40.9675 -86.5172 335° Northwest 374 430 13,700 -1,548 Descending Chicago Center
Fri 05:20:15 PM 41.0561 -86.5753 334° Northwest 358 412 12,200 -1,306 Descending Chicago Center
Fri 05:21:17 PM 41.1494 -86.6539 328° Northwest 333 383 11,000 -581 Descending Chicago Center
Fri 05:22:19 PM 41.2131 -86.7397 315° West 322 371 11,000  Level Chicago Center
Fri 05:23:21 PM 41.2725 -86.8206 314° West 312 359 11,000 -97 Level Chicago Center
Fri 05:24:23 PM 41.3239 -86.8903 314° West 278 320 10,800 -726 Descending Chicago Center
Fri 05:25:25 PM 41.3731 -86.9597 313° West 263 303 9,500 -1,306 Descending Chicago Center
Fri 05:26:27 PM 41.4308 -87.0403 314° West 255 293 8,100 -1,248 Descending Chicago Center
Fri 05:27:30 PM 41.4569 -87.1153 295° West 231 266 6,900 -1,008 Descending Chicago Center
Fri 05:28:32 PM 41.4628 -87.2019 275° West 233 268 6,000 -774 Descending Chicago Center
Fri 05:29:34 PM 41.4928 -87.2717 300° West 220 253 5,300 -968 Descending Chicago Center
Fri 05:30:36 PM 41.5303 -87.3389 307° West 226 260 4,000 -629 Descending Chicago Center
Fri 05:31:38 PM 41.5669 -87.4047 307° West 206 237 4,000  Level Chicago Center
Fri 05:32:40 PM 41.5956 -87.4572 306° West 190 219 4,000  Level Chicago Center
Fri 05:33:42 PM 41.6250 -87.5108 306° West 183 211 4,000  Level Chicago Center
Fri 05:34:44 PM 41.6508 -87.5583 306° West 174 200 4,000 -97 Level Chicago Center
Fri 05:35:46 PM 41.6761 -87.5992 310° West 159 183 3,800 -561 Descending Chicago Center
Fri 05:36:31 PM 41.7000 -87.6333 313° West 162 186 3,000 -971 Descending Chicago TRACON
Fri 05:37:31 PM 41.7333 -87.6833 312° West 161 185 2,100 -762 Descending Chicago TRACON
Fri 05:38:37 PM 41.7833 -87.7000 346° North 171 197 1,400 -429 Descending Chicago TRACON
Fri 05:39:37 PM 41.8000 -87.7167 323° Northwest 130 150 1,200 -200 Descending Chicago TRACON

Login

Don't have an account? Register now (free) for customized features, flight alerts, and more!